Last 48 Hours

Las Positas

15 Minute Data | America/Los_Angeles
as of 5/26/24 4:33 PM PDT
Date & Time Temp (°F) WindChill (°F) RH (%) Dew Pt (°F) Wet Bulb (°F) Wind Dir (°) Wind Spd (mph) Wind Gust (mph) Wind Gst Dir (°) Latest Rain (In) Daily Rain (In) Daily Min Temp (°F) Daily Max Temp (°F) Daily Max Wind (mph)
5/26/24 - 1630 76.4 - 39 49.8 59.7 W | 260 8.2 16.9 WSW | 246 0.00 0.00 44.0 78.3 17.3
5/26/24 - 1615 77.3 - 39 50.5 60.3 WSW | 254 7.2 17.3 WSW | 249 0.00 0.00 44.0 78.3 17.3
5/26/24 - 1600 77.2 - 39 50.2 60.2 W | 259 7.0 14.2 WNW | 289 0.00 0.00 44.0 78.3 17.1
5/26/24 - 1545 77.3 - 37 49.0 59.5 WSW | 250 6.7 15.1 SSW | 212 0.00 0.00 44.0 78.3 17.1
5/26/24 - 1530 77.4 - 36 48.5 59.3 WSW | 257 7.7 16.7 WNW | 287 0.00 0.00 44.0 78.3 17.1
5/26/24 - 1515 77.5 - 36 48.6 59.4 WSW | 254 6.3 12.5 SW | 224 0.00 0.00 44.0 78.2 17.1
5/26/24 - 1500 77.2 - 35 47.7 58.8 WSW | 248 7.5 17.1 SSW | 210 0.00 0.00 44.0 78.2 17.1
5/26/24 - 1445 76.8 - 35 47.4 58.6 W | 259 6.9 13.2 W | 264 0.00 0.00 44.0 78.2 14.5
5/26/24 - 1430 77.5 - 34 46.6 58.4 WSW | 240 7.0 14.5 WSW | 238 0.00 0.00 44.0 78.2 14.5
5/26/24 - 1415 77.3 - 32 45.0 57.6 SW | 235 6.3 14.0 WSW | 242 0.00 0.00 44.0 78.0 14.0
5/26/24 - 1400 77.5 - 32 45.7 58.0 SW | 236 4.1 11.8 SW | 230 0.00 0.00 44.0 78.0 11.8
5/26/24 - 1345 76.9 - 32 44.7 57.4 SW | 232 3.9 10.3 WSW | 238 0.00 0.00 44.0 77.7 11.0
5/26/24 - 1330 76.5 - 34 46.5 58.1 SW | 220 4.8 11.0 SW | 218 0.00 0.00 44.0 77.1 11.0
5/26/24 - 1315 76.2 - 35 46.8 58.2 SW | 224 3.5 9.4 SW | 231 0.00 0.00 44.0 76.7 10.5
5/26/24 - 1300 75.2 - 37 47.1 58.0 SW | 225 2.6 10.5 WSW | 244 0.00 0.00 44.0 76.6 10.5
5/26/24 - 1245 74.6 - 38 47.0 57.8 SSW | 210 3.0 7.0 SW | 228 0.00 0.00 44.0 75.2 8.6
5/26/24 - 1230 73.5 - 39 46.8 57.5 SW | 224 2.8 7.5 W | 269 0.00 0.00 44.0 73.8 8.6
5/26/24 - 1215 71.8 - 40 46.3 56.8 WSW | 238 2.2 5.7 SW | 235 0.00 0.00 44.0 73.0 8.6
5/26/24 - 1200 71.3 - 41 46.3 56.6 SSW | 198 3.5 7.7 SSW | 205 0.00 0.00 44.0 71.7 8.6
5/26/24 - 1145 70.6 - 42 46.2 56.3 S | 177 1.6 5.0 SSW | 200 0.00 0.00 44.0 71.4 8.6
5/26/24 - 1130 68.5 - 45 46.6 55.9 SSW | 196 3.1 7.0 SW | 233 0.00 0.00 44.0 69.6 8.6
5/26/24 - 1115 66.8 - 47 46.2 55.2 SSW | 194 3.1 8.3 SW | 218 0.00 0.00 44.0 67.7 8.6
5/26/24 - 1100 65.2 - 50 46.0 54.6 SSW | 210 2.7 5.7 SW | 236 0.00 0.00 44.0 66.3 8.6
5/26/24 - 1045 63.5 - 52 45.8 53.9 WSW | 248 2.5 6.8 WNW | 299 0.00 0.00 44.0 64.3 8.6
5/26/24 - 1030 62.6 - 54 46.0 53.7 SW | 230 2.7 6.1 SW | 224 0.00 0.00 44.0 63.4 8.6
5/26/24 - 1015 61.0 - 57 45.6 52.9 SW | 222 3.2 7.2 S | 184 0.00 0.00 44.0 61.7 8.6
5/26/24 - 1000 60.0 - 58 45.3 52.3 SSW | 198 2.5 6.1 SW | 232 0.00 0.00 44.0 60.9 8.6
5/26/24 - 0945 58.0 - 61 44.6 51.2 SSW | 193 3.7 8.6 SSW | 192 0.00 0.00 44.0 58.4 8.6
5/26/24 - 0930 57.4 - 62 44.6 51.0 SSW | 206 2.1 7.2 SSW | 192 0.00 0.00 44.0 58.3 7.2
5/26/24 - 0915 56.0 - 65 44.6 50.4 SSW | 197 2.7 6.1 S | 173 0.00 0.00 44.0 56.8 7.0
5/26/24 - 0900 54.8 - 68 44.6 49.9 SSW | 197 3.2 6.4 SSW | 192 0.00 0.00 44.0 55.4 7.0
5/26/24 - 0845 54.8 - 69 44.8 50.0 SW | 236 2.1 7.0 SSW | 197 0.00 0.00 44.0 55.2 7.0
5/26/24 - 0830 53.5 - 74 45.5 49.8 WSW | 238 1.3 4.2 SW | 222 0.00 0.00 44.0 54.1 4.8
5/26/24 - 0815 52.2 - 76 45.0 49.0 WNW | 282 1.8 4.8 SW | 222 0.00 0.00 44.0 52.5 4.8
5/26/24 - 0800 52.0 - 76 44.9 48.8 WSW | 240 0.9 4.6 WSW | 238 0.00 0.00 44.0 52.5 4.6
5/26/24 - 0745 51.9 - 75 44.3 48.5 SW | 214 0.7 2.8 NNW | 339 0.00 0.00 44.0 52.3 3.9
5/26/24 - 0730 51.1 - 79 44.7 48.3 SSW | 207 0.0 0.9 SSW | 201 0.00 0.00 44.0 51.9 3.9
5/26/24 - 0715 48.9 - 84 44.1 46.9 WNW | 294 0.1 0.9 NW | 304 0.00 0.00 44.0 49.9 3.9
5/26/24 - 0700 47.2 - 86 43.4 45.8 N | 352 0.0 0.7 N | 4 0.00 0.00 44.0 48.2 3.9
5/26/24 - 0645 45.6 - 88 42.4 44.4 N | 0 0.0 0.0 NW | 326 0.00 0.00 44.0 48.1 3.9
5/26/24 - 0630 44.6 - 89 41.6 43.5 NE | 41 0.2 1.5 NE | 46 0.00 0.00 44.0 48.1 3.9
5/26/24 - 0615 44.1 - 89 41.0 43.0 NE | 38 0.1 1.1 NE | 46 0.00 0.00 44.0 48.1 3.9
5/26/24 - 0600 44.1 - 89 41.1 43.0 NE | 51 0.2 0.9 NE | 56 0.00 0.00 44.1 48.1 3.9
5/26/24 - 0545 44.4 - 89 41.4 43.3 NE | 43 0.2 0.9 NE | 45 0.00 0.00 44.2 48.1 3.9
5/26/24 - 0530 44.6 - 89 41.5 43.4 NE | 53 0.5 1.5 NE | 56 0.00 0.00 44.5 48.1 3.9
5/26/24 - 0515 44.9 - 89 41.8 43.8 NE | 47 0.3 1.5 NE | 48 0.00 0.00 44.7 48.1 3.9
5/26/24 - 0500 45.1 - 89 42.2 44.1 NE | 51 1.4 2.4 ENE | 59 0.00 0.00 44.9 48.1 3.9
5/26/24 - 0445 45.1 - 89 42.0 44.0 NE | 48 1.6 2.2 NE | 52 0.00 0.00 44.9 48.1 3.9
5/26/24 - 0430 45.2 - 88 42.0 44.0 NNE | 20 0.6 1.3 NNW | 344 0.00 0.00 45.1 48.1 3.9
5/26/24 - 0415 45.6 - 88 42.2 44.3 NE | 50 0.3 1.5 NE | 51 0.00 0.00 45.3 48.1 3.9
5/26/24 - 0400 45.8 - 88 42.5 44.6 NNE | 30 0.3 1.5 NE | 54 0.00 0.00 45.7 48.1 3.9
5/26/24 - 0345 45.9 - 88 42.6 44.7 NW | 320 0.6 1.8 NW | 321 0.00 0.00 45.7 48.1 3.9
5/26/24 - 0330 46.1 - 88 42.7 44.8 NW | 317 0.8 2.2 WNW | 302 0.00 0.00 45.9 48.1 3.9
5/26/24 - 0315 46.2 - 88 42.8 44.9 NW | 313 0.7 2.2 NNW | 335 0.00 0.00 46.2 48.1 3.9
5/26/24 - 0300 46.4 - 87 42.7 45.0 NW | 325 0.4 1.8 WNW | 300 0.00 0.00 46.3 48.1 3.9
5/26/24 - 0245 46.6 - 87 43.0 45.3 NNW | 346 0.3 1.3 NNW | 336 0.00 0.00 46.3 48.1 3.9
5/26/24 - 0230 46.5 - 87 42.9 45.1 NW | 325 0.5 2.2 NW | 320 0.00 0.00 46.3 48.1 3.9
5/26/24 - 0215 46.6 - 87 43.0 45.2 NW | 313 0.7 2.0 NW | 320 0.00 0.00 46.4 48.1 3.9
5/26/24 - 0200 46.8 - 87 43.2 45.5 WNW | 287 0.8 2.6 WNW | 292 0.00 0.00 46.8 48.1 3.9
5/26/24 - 0145 46.8 - 86 43.0 45.3 WNW | 290 1.6 3.9 WNW | 296 0.00 0.00 46.8 48.1 3.9
5/26/24 - 0130 47.5 - 84 43.0 45.7 W | 275 0.8 2.6 SW | 225 0.00 0.00 47.0 48.1 2.8
5/26/24 - 0115 48.0 - 84 43.4 46.1 SW | 236 1.2 2.8 SW | 231 0.00 0.00 47.8 48.1 2.8
5/26/24 - 0100 48.3 - 84 43.6 46.4 SW | 234 1.6 3.5 SW | 228 0.00 0.00 48.1 63.4 22.4
5/26/24 - 0045 48.5 - 84 43.8 46.6 SW | 231 3.0 6.1 SW | 235 0.00 0.00 48.3 63.4 22.4
5/26/24 - 0030 48.4 - 84 43.8 46.5 SW | 234 1.9 4.6 SW | 220 0.00 0.00 48.3 63.4 22.4
5/26/24 - 0015 48.6 - 84 43.9 46.6 W | 280 2.8 5.3 W | 281 0.00 0.00 48.4 63.4 22.4
5/26/24 - 0000 48.7 - 83 43.8 46.7 WSW | 237 1.6 5.3 WNW | 284 0.00 0.00 48.6 63.4 22.4
5/25/24 - 2345 48.8 48.1 82 43.6 46.6 WNW | 288 3.3 6.6 W | 271 0.00 0.00 48.6 63.4 22.4
5/25/24 - 2330 49.1 - 82 43.9 46.9 W | 260 2.7 8.6 WNW | 292 0.00 0.00 49.1 63.4 22.4
5/25/24 - 2315 49.2 47.4 81 43.6 46.9 WNW | 282 4.8 8.6 W | 267 0.00 0.00 49.1 63.4 22.4
5/25/24 - 2300 49.7 48.8 81 44.0 47.3 W | 261 3.6 7.7 WNW | 284 0.00 0.00 49.6 63.4 22.4
5/25/24 - 2245 50.0 - 80 44.2 47.5 W | 271 4.6 10.7 WNW | 285 0.00 0.00 49.8 63.4 22.4
5/25/24 - 2230 50.0 48.1 80 44.0 47.4 W | 273 5.2 10.5 W | 279 0.00 0.00 49.8 63.4 22.4
5/25/24 - 2215 50.0 47.8 78 43.5 47.2 W | 280 5.7 10.3 WNW | 290 0.00 0.00 49.8 63.4 22.4
5/25/24 - 2200 50.4 - 76 43.3 47.2 W | 280 5.2 8.3 W | 280 0.00 0.00 50.2 63.4 22.4
5/25/24 - 2145 50.6 - 76 43.4 47.3 W | 273 5.3 11.8 W | 277 0.00 0.00 50.5 63.4 22.4
5/25/24 - 2130 51.1 - 75 43.5 47.6 W | 262 4.6 9.4 WSW | 251 0.00 0.00 50.8 63.4 22.4
5/25/24 - 2115 51.6 - 73 43.4 47.9 WSW | 255 5.9 10.7 WSW | 255 0.00 0.00 51.4 63.4 22.4
5/25/24 - 2100 52.1 - 72 43.3 48.0 W | 259 5.9 13.4 W | 259 0.00 0.00 51.9 63.4 22.4
5/25/24 - 2045 52.8 - 70 43.2 48.2 W | 266 4.9 9.6 W | 274 0.00 0.00 51.9 63.4 22.4
5/25/24 - 2030 53.4 - 69 43.4 48.7 WSW | 256 5.2 10.5 SW | 230 0.00 0.00 51.9 63.4 22.4
5/25/24 - 2015 53.9 - 68 43.5 48.9 W | 261 5.4 11.2 WSW | 251 0.00 0.00 51.9 63.4 22.4
5/25/24 - 2000 54.8 - 65 43.3 49.2 WSW | 246 6.9 16.0 WSW | 250 0.00 0.00 51.9 63.4 22.4
5/25/24 - 1945 55.6 - 64 43.6 49.7 WSW | 241 7.7 15.8 WSW | 247 0.00 0.00 51.9 63.4 22.4
5/25/24 - 1930 56.1 - 64 44.0 50.1 WSW | 253 7.7 14.2 SW | 232 0.00 0.00 51.9 63.4 22.4
5/25/24 - 1915 57.0 - 60 43.3 50.2 WSW | 254 7.9 16.4 W | 275 0.00 0.00 51.9 63.4 22.4
5/25/24 - 1900 57.7 - 59 43.4 50.5 WSW | 245 8.1 17.1 SW | 227 0.00 0.00 51.9 63.4 22.4
5/25/24 - 1845 57.8 - 58 43.3 50.5 WSW | 258 10.3 21.5 WNW | 290 0.00 0.00 51.9 63.4 22.4
5/25/24 - 1830 58.4 - 59 43.9 51.0 W | 267 9.9 20.2 W | 279 0.00 0.00 51.9 63.4 22.4
5/25/24 - 1815 59.0 - 58 44.3 51.4 W | 263 10.3 21.9 WNW | 294 0.00 0.00 51.9 63.4 22.4
5/25/24 - 1800 59.5 - 58 44.7 51.8 W | 263 9.9 20.8 W | 272 0.00 0.00 51.9 63.4 22.4
5/25/24 - 1745 59.9 - 58 45.0 52.1 W | 263 10.2 20.6 W | 281 0.00 0.00 51.9 63.4 22.4
5/25/24 - 1730 60.7 - 56 45.0 52.5 W | 259 10.4 22.4 WNW | 290 0.00 0.00 51.9 63.4 22.4
5/25/24 - 1715 61.1 - 55 45.0 52.6 W | 266 10.4 21.0 W | 266 0.00 0.00 51.9 63.4 21.3
5/25/24 - 1700 61.7 - 54 44.9 52.8 W | 260 10.1 21.0 W | 263 0.00 0.00 51.9 63.4 21.3
5/25/24 - 1645 62.0 - 53 44.9 52.8 W | 260 11.1 19.7 WNW | 285 0.00 0.00 51.9 63.4 21.3
5/25/24 - 1630 62.3 - 53 44.8 52.9 W | 264 9.8 18.6 W | 281 0.00 0.00 51.9 63.4 21.3
5/25/24 - 1615 62.2 - 53 44.7 52.9 W | 261 9.6 19.5 WSW | 248 0.00 0.00 51.9 63.4 21.3
5/25/24 - 1600 62.1 - 53 44.7 52.8 W | 262 9.8 19.7 WSW | 256 0.00 0.00 51.9 63.1 21.3
5/25/24 - 1545 62.0 - 54 45.2 53.1 W | 262 10.2 19.1 WNW | 296 0.00 0.00 51.9 63.1 21.3
5/25/24 - 1530 62.4 - 54 45.7 53.4 WSW | 255 10.2 18.4 W | 281 0.00 0.00 51.9 63.1 21.3
5/25/24 - 1515 62.4 - 55 45.9 53.5 SW | 228 10.2 20.8 WSW | 249 0.00 0.00 51.9 63.1 21.3
5/25/24 - 1500 62.2 - 56 46.2 53.6 SW | 232 9.8 18.4 SW | 229 0.00 0.00 51.9 63.1 21.3
5/25/24 - 1445 62.5 - 56 46.8 54.1 WSW | 250 9.1 17.5 SW | 224 0.00 0.00 51.9 63.1 21.3
5/25/24 - 1430 61.8 - 58 47.0 53.9 SW | 233 10.6 21.3 SW | 225 0.00 0.00 51.9 63.0 21.3
5/25/24 - 1415 62.3 - 59 47.6 54.4 SW | 217 9.3 16.9 S | 185 0.00 0.00 51.9 63.0 21.0
5/25/24 - 1400 62.2 - 59 47.9 54.5 SW | 234 9.6 21.0 WSW | 244 0.00 0.00 51.9 63.0 21.0
5/25/24 - 1345 61.8 - 61 48.3 54.6 WSW | 246 9.5 18.0 WNW | 294 0.00 0.00 51.9 63.0 18.6
5/25/24 - 1330 62.2 - 61 48.5 54.9 WSW | 248 9.0 18.6 SW | 234 0.00 0.00 51.9 63.0 18.6
5/25/24 - 1315 62.2 - 61 48.7 55.0 WSW | 256 7.5 15.8 WNW | 293 0.00 0.00 51.9 62.8 18.2
5/25/24 - 1300 61.7 - 60 47.5 54.2 SW | 235 8.1 16.4 WSW | 242 0.00 0.00 51.9 62.2 18.2
5/25/24 - 1245 60.9 - 62 47.7 53.9 WSW | 237 8.5 16.0 SW | 223 0.00 0.00 51.9 61.4 18.2
5/25/24 - 1230 60.8 - 62 47.9 54.0 SW | 232 8.3 15.8 SW | 234 0.00 0.00 51.9 61.4 18.2
5/25/24 - 1215 60.0 - 65 48.1 53.9 SW | 230 8.9 17.3 WSW | 241 0.00 0.00 51.9 61.0 18.2
5/25/24 - 1200 60.5 - 63 48.1 54.1 SW | 229 8.2 16.9 SW | 232 0.00 0.00 51.9 61.0 18.2
5/25/24 - 1145 59.6 - 66 48.3 53.8 SW | 230 6.9 14.7 SW | 224 0.00 0.00 51.9 60.6 18.2
5/25/24 - 1130 57.8 - 71 48.4 53.2 WSW | 248 8.2 15.3 SW | 235 0.00 0.00 51.9 58.6 18.2
5/25/24 - 1115 58.1 - 70 48.3 53.3 WSW | 252 7.4 16.9 WSW | 240 0.00 0.00 51.9 58.6 18.2
5/25/24 - 1100 58.0 - 69 48.0 53.0 WSW | 244 7.7 16.9 WSW | 241 0.00 0.00 51.9 58.6 18.2
5/25/24 - 1045 57.2 - 71 48.1 52.8 SW | 235 7.7 14.7 SW | 225 0.00 0.00 51.9 57.6 18.2
5/25/24 - 1030 56.5 - 74 48.4 52.7 SW | 235 6.6 14.7 W | 276 0.00 0.00 51.9 56.9 18.2
5/25/24 - 1015 56.3 - 76 48.8 52.9 WSW | 250 7.2 16.4 WSW | 239 0.00 0.00 51.9 56.5 18.2
5/25/24 - 1000 55.4 - 81 49.6 52.9 W | 262 6.5 14.9 WSW | 239 0.00 0.00 51.9 56.1 18.2
5/25/24 - 0945 54.3 - 84 49.5 52.5 W | 263 8.8 17.8 WSW | 246 0.00 0.00 51.9 54.8 18.2
5/25/24 - 0930 53.6 - 90 50.6 52.8 W | 259 6.3 14.0 W | 260 0.00 0.00 51.9 54.1 18.2
5/25/24 - 0915 52.6 - 91 50.0 52.0 W | 274 7.4 14.2 W | 280 0.00 0.00 51.9 54.1 18.2
5/25/24 - 0900 53.8 - 90 50.9 53.1 WSW | 251 5.6 13.8 WNW | 283 0.00 0.00 51.9 54.1 18.2
5/25/24 - 0845 53.8 - 90 51.0 53.2 SW | 226 6.5 14.5 SW | 220 0.00 0.00 51.9 54.0 18.2
5/25/24 - 0830 53.6 - 89 50.6 52.8 SSW | 209 5.5 11.0 S | 185 0.00 0.00 51.9 53.9 18.2
5/25/24 - 0815 53.8 - 87 50.0 52.5 SW | 226 5.9 11.2 SW | 232 0.00 0.00 51.9 53.9 18.2
5/25/24 - 0800 53.4 - 88 49.9 52.3 SW | 223 7.2 14.7 SSW | 209 0.00 0.00 51.9 53.5 18.2
5/25/24 - 0745 53.2 - 88 49.7 52.0 SW | 216 7.9 18.2 SSW | 209 0.00 0.00 51.9 53.3 18.2
5/25/24 - 0730 53.0 - 88 49.7 52.0 SSW | 208 6.4 12.7 SSW | 195 0.00 0.00 51.9 53.3 17.1
5/25/24 - 0715 53.1 - 86 49.1 51.7 SSW | 202 5.6 11.2 SSW | 192 0.00 0.00 51.9 53.3 17.1
5/25/24 - 0700 53.0 - 86 49.0 51.6 SSW | 209 6.6 12.7 SSW | 198 0.00 0.00 51.9 53.3 17.1
5/25/24 - 0645 52.9 - 86 48.8 51.4 SSW | 209 6.3 12.3 SSW | 195 0.00 0.00 51.9 53.3 17.1
5/25/24 - 0630 52.8 - 86 48.6 51.3 SSW | 212 6.4 11.8 SW | 225 0.00 0.00 51.9 53.3 17.1
5/25/24 - 0615 52.8 - 84 48.2 51.0 SSW | 210 7.9 14.9 SSW | 197 0.00 0.00 51.9 53.3 17.1
5/25/24 - 0600 52.7 - 85 48.2 51.0 SSW | 205 7.4 14.9 SSW | 194 0.00 0.00 51.9 53.3 17.1
5/25/24 - 0545 52.9 - 83 47.8 50.8 SSW | 210 7.2 13.4 SSW | 200 0.00 0.00 51.9 53.3 17.1
5/25/24 - 0530 52.9 - 82 47.4 50.6 SW | 226 8.3 13.8 WSW | 240 0.00 0.00 51.9 53.3 17.1
5/25/24 - 0515 53.0 - 82 47.7 50.8 SW | 218 7.9 15.1 S | 187 0.00 0.00 51.9 53.3 17.1
5/25/24 - 0500 53.1 - 81 47.4 50.7 SW | 227 8.8 14.2 WSW | 242 0.00 0.00 51.9 53.3 17.1
5/25/24 - 0445 53.1 - 82 47.8 50.9 SW | 229 8.9 14.9 SW | 234 0.00 0.00 51.9 53.3 17.1
5/25/24 - 0430 53.2 - 82 47.8 51.0 SW | 228 8.1 13.8 WSW | 237 0.00 0.00 51.9 53.3 17.1
5/25/24 - 0415 53.2 - 81 47.6 50.8 SW | 223 6.9 15.3 WSW | 240 0.00 0.00 51.9 53.3 17.1
5/25/24 - 0400 52.7 - 82 47.4 50.5 SW | 223 7.7 16.0 WSW | 240 0.00 0.00 51.9 53.1 17.1
5/25/24 - 0345 52.7 - 82 47.3 50.5 SW | 228 7.9 16.0 WSW | 238 0.00 0.00 51.9 53.1 17.1
5/25/24 - 0330 52.4 - 84 47.6 50.5 SW | 217 8.5 15.6 S | 186 0.00 0.00 51.9 53.1 17.1
5/25/24 - 0315 52.6 - 83 47.7 50.7 SSW | 212 8.4 14.7 SSW | 206 0.00 0.00 51.9 53.1 17.1
5/25/24 - 0300 52.2 - 84 47.6 50.5 SW | 230 6.5 12.5 SW | 214 0.00 0.00 51.9 53.1 17.1
5/25/24 - 0245 51.9 - 86 47.9 50.4 WSW | 245 7.1 14.5 WSW | 246 0.00 0.00 51.9 53.1 17.1
5/25/24 - 0230 52.0 - 86 48.0 50.6 WSW | 258 5.7 14.9 WSW | 248 0.00 0.00 52.0 53.1 17.1
5/25/24 - 0215 52.4 - 84 47.7 50.5 WSW | 257 6.4 12.7 WNW | 297 0.00 0.00 52.0 53.1 17.1
5/25/24 - 0200 52.5 - 83 47.7 50.6 WSW | 240 7.3 15.8 WSW | 242 0.00 0.00 52.5 53.1 17.1
5/25/24 - 0145 52.8 - 82 47.6 50.6 SW | 236 8.6 17.1 SW | 229 0.00 0.00 52.5 53.1 17.1
5/25/24 - 0130 52.9 - 82 47.5 50.7 SW | 234 6.5 14.5 WSW | 256 0.00 0.00 52.7 53.1 16.0
5/25/24 - 0115 53.0 - 81 47.4 50.6 SW | 232 8.2 16.0 SW | 230 0.00 0.00 52.7 53.1 16.0
5/25/24 - 0100 52.5 - 84 47.7 50.6 SW | 229 6.6 12.9 SW | 224 0.00 0.00 48.4 60.8 25.6
5/25/24 - 0045 52.2 - 86 48.0 50.6 SW | 233 7.0 14.2 WSW | 243 0.00 0.00 48.4 60.8 25.6
5/25/24 - 0030 52.4 - 84 47.8 50.6 WSW | 245 7.2 15.6 WSW | 251 0.00 0.00 48.4 60.8 25.6
5/25/24 - 0015 52.6 - 83 47.7 50.6 WSW | 242 8.2 17.5 SW | 230 0.00 0.00 48.4 60.8 25.6
5/25/24 - 0000 53.3 - 82 47.9 51.0 WSW | 247 6.7 15.8 SW | 230 0.00 0.00 48.4 60.8 25.6
5/24/24 - 2345 53.6 - 80 47.6 51.0 WSW | 237 6.8 15.8 SW | 223 0.00 0.00 48.4 60.8 25.6
5/24/24 - 2330 53.9 - 79 47.6 51.1 SW | 228 8.2 14.2 WSW | 246 0.00 0.00 48.4 60.8 25.6
5/24/24 - 2315 53.8 - 79 47.4 51.0 SW | 226 8.2 16.2 WSW | 240 0.00 0.00 48.4 60.8 25.6
5/24/24 - 2300 53.8 - 78 47.2 50.9 SW | 229 9.0 18.0 WSW | 244 0.00 0.00 48.4 60.8 25.6
5/24/24 - 2245 53.7 - 78 47.1 50.8 WSW | 240 10.7 20.0 WSW | 254 0.00 0.00 48.4 60.8 25.6
5/24/24 - 2230 54.0 - 77 47.2 51.0 WSW | 237 9.0 18.8 WSW | 248 0.00 0.00 48.4 60.8 25.6
5/24/24 - 2215 54.2 - 77 47.0 51.0 SW | 232 9.3 18.6 SSW | 204 0.00 0.00 48.4 60.8 25.6
5/24/24 - 2200 54.4 - 75 46.7 50.8 SW | 228 10.0 18.2 SW | 223 0.00 0.00 48.4 60.8 25.6
5/24/24 - 2145 54.2 - 76 46.7 50.7 SW | 236 10.2 21.3 WSW | 238 0.00 0.00 48.4 60.8 25.6
5/24/24 - 2130 54.2 - 75 46.4 50.6 SW | 229 8.7 21.5 SW | 236 0.00 0.00 48.4 60.8 25.6
5/24/24 - 2115 54.2 - 74 46.1 50.4 WSW | 237 9.8 22.1 WSW | 240 0.00 0.00 48.4 60.8 25.6
5/24/24 - 2100 54.3 - 74 46.3 50.6 WSW | 243 8.5 17.3 WSW | 253 0.00 0.00 48.4 60.8 25.6
5/24/24 - 2045 54.4 - 74 46.5 50.7 SW | 227 9.1 20.2 SW | 236 0.00 0.00 48.4 60.8 25.6
5/24/24 - 2030 54.4 - 74 46.3 50.6 SW | 227 10.0 18.6 SW | 230 0.00 0.00 48.4 60.8 25.6
5/24/24 - 2015 54.4 - 73 46.0 50.5 SW | 230 9.5 20.0 WSW | 240 0.00 0.00 48.4 60.8 25.6
5/24/24 - 2000 54.3 - 73 45.9 50.4 SW | 231 10.7 21.3 WSW | 245 0.00 0.00 48.4 60.8 25.6
5/24/24 - 1945 54.5 - 72 45.6 50.3 SW | 231 9.8 20.8 SW | 236 0.00 0.00 48.4 60.8 25.6
5/24/24 - 1930 54.6 - 70 45.1 50.1 WSW | 244 9.6 19.5 SW | 234 0.00 0.00 48.4 60.8 25.6
5/24/24 - 1915 55.4 - 67 44.5 50.1 SW | 232 9.0 20.2 SW | 230 0.00 0.00 48.4 60.8 25.6
5/24/24 - 1900 55.3 - 67 44.6 50.1 WSW | 245 8.8 17.8 WSW | 250 0.00 0.00 48.4 60.8 25.6
5/24/24 - 1845 55.3 - 66 44.3 49.9 WSW | 240 10.3 21.9 SW | 231 0.00 0.00 48.4 60.8 25.6
5/24/24 - 1830 56.2 - 66 44.9 50.6 WSW | 241 10.5 22.6 W | 267 0.00 0.00 48.4 60.8 25.6
5/24/24 - 1815 56.1 - 67 45.4 50.9 WSW | 248 8.5 18.8 WSW | 247 0.00 0.00 48.4 60.8 25.6
5/24/24 - 1800 56.2 - 68 45.8 51.1 SW | 218 10.2 18.4 SSW | 197 0.00 0.00 48.4 60.8 25.6
5/24/24 - 1745 56.7 - 67 46.0 51.4 SW | 227 9.4 20.0 SW | 217 0.00 0.00 48.4 60.8 25.6
5/24/24 - 1730 56.3 - 68 45.8 51.1 SW | 227 9.4 18.6 SW | 235 0.00 0.00 48.4 60.8 25.6
5/24/24 - 1715 56.3 - 69 46.5 51.5 SW | 232 8.9 20.0 SW | 232 0.00 0.00 48.4 60.8 25.6
5/24/24 - 1700 57.0 - 66 46.0 51.6 SW | 231 9.1 20.2 SW | 231 0.00 0.00 48.4 60.8 25.6
5/24/24 - 1645 56.9 - 66 45.8 51.4 WSW | 242 10.3 22.1 SW | 225 0.00 0.00 48.4 60.8 25.6
5/24/24 - 1630 57.1 - 66 45.7 51.4 WSW | 248 9.5 18.2 WSW | 241 0.00 0.00 48.4 60.8 25.6
Max 77.5 48.8 91 51.0 60.3 - 11.1 22.6 - 0.00 0.00 52.7 78.3 25.6
Avg 56.4 48.0 70 46.0 51.0 - 6.1 12.7 - 0.00 - - - -
Min 44.1 47.4 32 41.0 43.0 - 0.0 0.0 - 0.00 0.00 44.0 48.1 2.8
Total - - - - - - - - - 0.00 - - - -